createdAt,value
2023-05-14T00:01:17.551Z,57.77
2023-05-14T00:03:45.605Z,59.10
2023-05-14T00:06:13.828Z,58.94
2023-05-14T00:08:41.406Z,58.80
2023-05-14T00:11:09.924Z,58.92
2023-05-14T00:13:37.659Z,58.85
2023-05-14T00:16:05.688Z,59.79
2023-05-14T00:18:33.504Z,59.17
2023-05-14T00:21:00.802Z,58.72
2023-05-14T00:23:28.560Z,57.96
2023-05-14T00:25:56.705Z,58.34
2023-05-14T00:28:24.399Z,59.27
2023-05-14T00:30:52.256Z,59.92
2023-05-14T00:33:19.767Z,59.88
2023-05-14T00:35:47.591Z,58.91
2023-05-14T00:38:23.432Z,60.76
2023-05-14T00:40:51.858Z,60.93
2023-05-14T00:43:23.105Z,60.08
2023-05-14T00:45:54.764Z,59.93
2023-05-14T00:48:23.582Z,61.21
2023-05-14T00:50:51.799Z,62.77
2023-05-14T00:53:21.000Z,63.54
2023-05-14T00:55:50.384Z,63.98
2023-05-14T00:58:19.457Z,65.31
2023-05-14T01:00:46.844Z,65.28
2023-05-14T01:03:14.591Z,65.70
2023-05-14T01:06:01.588Z,65.11
2023-05-14T01:09:25.673Z,66.71
2023-05-14T01:12:04.040Z,67.51
2023-05-14T01:14:46.309Z,66.76
2023-05-14T01:17:20.090Z,66.42
2023-05-14T01:19:49.359Z,66.57
2023-05-14T01:22:17.085Z,66.53
2023-05-14T01:24:44.765Z,66.56
2023-05-14T01:27:56.182Z,67.02
2023-05-14T01:30:41.487Z,66.25
2023-05-14T01:33:18.098Z,66.67
2023-05-14T01:35:46.580Z,65.91
2023-05-14T01:38:24.576Z,64.82
2023-05-14T01:40:54.436Z,64.52
2023-05-14T01:43:23.026Z,65.59
2023-05-14T01:45:50.505Z,66.38
2023-05-14T01:48:19.041Z,64.41
2023-05-14T01:50:46.230Z,64.44
2023-05-14T01:53:14.817Z,64.83
2023-05-14T01:55:42.143Z,65.47
2023-05-14T01:58:10.544Z,66.53
2023-05-14T02:00:38.361Z,65.66
2023-05-14T02:03:06.543Z,63.78
2023-05-14T02:05:34.483Z,64.26
2023-05-14T02:08:01.670Z,64.75
2023-05-14T02:10:29.179Z,64.91
2023-05-14T02:12:56.708Z,63.73
2023-05-14T02:15:24.347Z,64.90
2023-05-14T02:17:51.690Z,64.92
2023-05-14T02:20:19.127Z,64.00
2023-05-14T02:22:47.369Z,63.69
2023-05-14T02:25:15.592Z,64.94
2023-05-14T02:27:43.069Z,65.32
2023-05-14T02:30:11.936Z,64.96
2023-05-14T02:32:40.242Z,64.95
2023-05-14T02:35:08.609Z,63.50
2023-05-14T02:37:35.985Z,63.98
2023-05-14T02:40:04.537Z,64.42
2023-05-14T02:42:32.978Z,64.67
2023-05-14T02:45:00.539Z,65.24
2023-05-14T02:47:27.878Z,64.31
2023-05-14T02:49:55.428Z,63.81
2023-05-14T02:52:22.708Z,63.58
2023-05-14T02:54:50.331Z,64.62
2023-05-14T02:57:17.644Z,64.20
2023-05-14T02:59:44.835Z,62.73
2023-05-14T03:02:14.572Z,63.50
2023-05-14T03:04:42.632Z,63.41
2023-05-14T03:07:10.624Z,62.55
2023-05-14T03:09:38.427Z,62.89
2023-05-14T03:12:08.389Z,63.23
2023-05-14T03:14:35.933Z,62.51
2023-05-14T03:17:04.130Z,62.49
2023-05-14T03:19:31.513Z,63.41
2023-05-14T03:21:59.268Z,62.84
2023-05-14T03:24:27.149Z,62.33
2023-05-14T03:26:54.974Z,62.44
2023-05-14T03:29:23.050Z,61.39
2023-05-14T03:31:50.664Z,61.63
2023-05-14T03:34:18.107Z,60.12
2023-05-14T03:36:45.490Z,61.16
2023-05-14T03:39:15.613Z,60.54
2023-05-14T03:41:43.050Z,60.88
2023-05-14T03:44:10.557Z,61.32
2023-05-14T03:46:38.130Z,60.21
2023-05-14T03:49:08.423Z,61.28
2023-05-14T03:51:35.928Z,60.88
2023-05-14T03:54:05.665Z,60.18
2023-05-14T03:56:34.033Z,61.06
2023-05-14T03:59:01.440Z,60.52
2023-05-14T04:01:28.818Z,60.85
2023-05-14T04:03:58.928Z,59.88
2023-05-14T04:06:27.536Z,60.41
2023-05-14T04:08:55.542Z,60.12
2023-05-14T04:11:23.138Z,60.33
2023-05-14T04:13:50.504Z,60.21
2023-05-14T04:16:17.818Z,60.97
2023-05-14T04:18:45.198Z,60.92
2023-05-14T04:21:12.540Z,60.84
2023-05-14T04:23:40.409Z,60.54
2023-05-14T04:26:07.976Z,60.09
2023-05-14T04:28:35.635Z,61.06
2023-05-14T04:31:03.838Z,60.97
2023-05-14T04:33:31.296Z,60.22
2023-05-14T04:35:58.644Z,60.50
2023-05-14T04:38:29.454Z,60.36
2023-05-14T04:40:56.993Z,59.93
2023-05-14T04:43:24.485Z,60.13
2023-05-14T04:45:52.493Z,59.88
2023-05-14T04:48:20.015Z,59.75
2023-05-14T04:50:47.268Z,59.44
2023-05-14T04:53:15.505Z,60.22
2023-05-14T04:55:42.716Z,59.64
2023-05-14T04:58:09.934Z,60.44
2023-05-14T05:00:37.489Z,60.21
2023-05-14T05:03:04.886Z,59.16
2023-05-14T05:05:32.099Z,59.42
2023-05-14T05:07:59.261Z,59.35
2023-05-14T05:10:26.926Z,58.95
2023-05-14T05:12:54.132Z,58.58
2023-05-14T05:15:21.650Z,59.10
2023-05-14T05:17:49.665Z,59.01
2023-05-14T05:20:17.221Z,59.19
2023-05-14T05:22:44.627Z,58.64
2023-05-14T05:25:12.916Z,59.18
2023-05-14T05:27:40.908Z,58.14
2023-05-14T05:30:09.446Z,57.34
2023-05-14T05:32:37.344Z,56.85
2023-05-14T05:35:05.193Z,57.66
2023-05-14T05:37:32.568Z,57.35
2023-05-14T05:39:59.960Z,57.00
2023-05-14T05:42:27.467Z,58.03
2023-05-14T05:44:54.968Z,57.78
2023-05-14T05:47:22.502Z,57.84
2023-05-14T05:49:49.999Z,58.15
2023-05-14T05:52:17.356Z,57.76
2023-05-14T05:54:45.729Z,57.06
2023-05-14T05:57:14.239Z,56.75
2023-05-14T05:59:41.500Z,56.33
2023-05-14T06:02:14.430Z,56.34
2023-05-14T06:04:42.269Z,56.78
2023-05-14T06:07:09.652Z,56.16
2023-05-14T06:09:36.941Z,56.48
2023-05-14T06:12:04.947Z,57.34
2023-05-14T06:14:32.158Z,56.59
2023-05-14T06:16:59.568Z,57.97
2023-05-14T06:19:26.891Z,56.92
2023-05-14T06:21:54.050Z,57.21
2023-05-14T06:24:21.217Z,56.65
2023-05-14T06:26:49.309Z,56.65
2023-05-14T06:29:17.349Z,57.10
2023-05-14T06:31:45.623Z,57.06
2023-05-14T06:34:12.989Z,56.18
2023-05-14T06:36:40.257Z,56.08
2023-05-14T06:39:08.428Z,53.50
2023-05-14T06:41:35.912Z,54.05
2023-05-14T06:44:03.684Z,52.91
2023-05-14T06:46:30.924Z,51.71
2023-05-14T06:48:59.592Z,50.44
2023-05-14T06:51:30.663Z,50.32
2023-05-14T06:53:58.059Z,50.51
2023-05-14T06:56:25.406Z,49.94
2023-05-14T06:58:52.621Z,49.91
2023-05-14T07:01:19.911Z,49.56
2023-05-14T07:03:48.363Z,49.04
2023-05-14T07:06:16.104Z,48.70
2023-05-14T07:08:47.374Z,47.33
2023-05-14T07:11:16.006Z,47.51
2023-05-14T07:13:43.555Z,46.44
2023-05-14T07:16:10.714Z,46.23
2023-05-14T07:18:38.243Z,46.40
2023-05-14T07:21:06.555Z,46.00
2023-05-14T07:23:38.421Z,46.30
2023-05-14T07:26:08.154Z,46.52
2023-05-14T07:28:35.823Z,46.29
2023-05-14T07:31:08.823Z,46.55
2023-05-14T07:33:36.969Z,44.96
2023-05-14T07:36:05.352Z,44.82
2023-05-14T07:38:33.129Z,43.77
2023-05-14T07:41:00.610Z,43.01
2023-05-14T07:43:27.900Z,44.29
2023-05-14T07:45:55.977Z,43.05
2023-05-14T07:48:23.950Z,42.32
2023-05-14T07:50:51.938Z,42.35
2023-05-14T07:53:19.278Z,41.80
2023-05-14T07:55:48.381Z,41.79
2023-05-14T07:58:16.375Z,42.25
2023-05-14T08:00:43.666Z,42.14
2023-05-14T08:03:11.392Z,42.58
2023-05-14T08:05:38.681Z,42.21
2023-05-14T08:08:06.729Z,41.54
2023-05-14T08:10:34.639Z,39.86
2023-05-14T08:13:02.023Z,37.99
2023-05-14T08:15:29.599Z,35.57
2023-05-14T08:17:58.857Z,34.75
2023-05-14T08:20:27.084Z,33.49
2023-05-14T08:22:55.716Z,32.36
2023-05-14T08:25:28.516Z,30.86
2023-05-14T08:27:56.082Z,29.55
2023-05-14T08:30:24.072Z,29.27
2023-05-14T08:32:52.845Z,28.65
2023-05-14T08:35:20.542Z,27.46
2023-05-14T08:37:49.690Z,27.46
2023-05-14T08:40:18.853Z,27.27
2023-05-14T08:42:48.495Z,28.95
2023-05-14T08:45:25.753Z,30.68
2023-05-14T08:47:53.865Z,31.52
2023-05-14T08:50:23.337Z,33.66
2023-05-14T08:52:52.101Z,34.76
2023-05-14T08:55:20.328Z,37.48
2023-05-14T08:57:47.551Z,37.88
2023-05-14T09:00:20.595Z,39.24
2023-05-14T09:02:49.365Z,39.58
2023-05-14T09:05:19.335Z,38.69
2023-05-14T09:07:47.214Z,38.79
2023-05-14T09:10:18.734Z,38.48
2023-05-14T09:14:27.405Z,37.02
2023-05-14T09:16:55.563Z,36.17
2023-05-14T09:19:23.276Z,34.58
2023-05-14T09:21:51.582Z,34.31
2023-05-14T09:24:30.978Z,34.42
2023-05-14T09:26:58.969Z,35.59
2023-05-14T09:29:31.214Z,34.53
2023-05-14T09:32:04.978Z,34.56
2023-05-14T09:34:37.323Z,34.64
2023-05-14T09:37:09.532Z,34.02
2023-05-14T09:39:38.658Z,33.84
2023-05-14T09:42:06.458Z,33.46
2023-05-14T09:44:33.797Z,33.46
2023-05-14T09:47:01.142Z,32.92
2023-05-14T09:49:28.424Z,33.10
2023-05-14T09:51:57.933Z,34.27
2023-05-14T09:54:27.657Z,35.49
2023-05-14T09:56:55.908Z,34.76
2023-05-14T09:59:23.393Z,34.21
2023-05-14T10:01:52.695Z,33.66
2023-05-14T10:04:22.406Z,31.77
2023-05-14T10:06:53.408Z,31.44
2023-05-14T10:09:26.472Z,31.76
2023-05-14T10:12:01.499Z,31.19
2023-05-14T10:14:46.994Z,31.36
2023-05-14T10:17:18.709Z,32.45
2023-05-14T10:19:59.066Z,34.82
2023-05-14T10:22:34.998Z,36.62
2023-05-14T10:25:05.065Z,35.59
2023-05-14T10:27:33.774Z,35.71
2023-05-14T10:30:06.264Z,35.18
2023-05-14T10:32:37.829Z,35.28
2023-05-14T10:35:22.975Z,31.54
2023-05-14T10:37:52.183Z,28.62
2023-05-14T10:40:24.545Z,29.00
2023-05-14T10:42:53.457Z,27.95
2023-05-14T10:45:23.240Z,27.53
2023-05-14T10:47:50.761Z,27.28
2023-05-14T10:50:18.735Z,28.71
2023-05-14T10:52:46.924Z,27.89
2023-05-14T10:55:17.288Z,25.71
2023-05-14T10:57:46.884Z,25.42
2023-05-14T11:00:20.941Z,25.41
2023-05-14T11:02:48.689Z,25.48
2023-05-14T11:05:17.921Z,27.67
2023-05-14T11:07:50.321Z,31.13
2023-05-14T11:10:26.077Z,30.24
2023-05-14T11:12:57.324Z,29.81
2023-05-14T11:15:27.952Z,30.02
2023-05-14T11:17:55.634Z,26.94
2023-05-14T11:20:23.287Z,22.16
2023-05-14T11:22:55.426Z,19.83
2023-05-14T11:25:29.053Z,18.40
2023-05-14T11:27:58.943Z,18.88
2023-05-14T11:30:26.778Z,24.32
2023-05-14T11:32:56.123Z,27.02
2023-05-14T11:35:24.085Z,26.83
2023-05-14T11:37:52.893Z,28.07
2023-05-14T11:40:20.995Z,27.70
2023-05-14T11:42:53.429Z,25.20
2023-05-14T11:45:29.927Z,24.70
2023-05-14T11:47:57.699Z,23.39
2023-05-14T11:50:25.753Z,24.09
2023-05-14T11:52:57.696Z,21.93
2023-05-14T11:55:25.366Z,22.99
2023-05-14T11:57:52.863Z,25.27
2023-05-14T12:00:22.231Z,22.59
2023-05-14T12:02:50.491Z,20.47
2023-05-14T12:05:18.919Z,18.28
2023-05-14T12:07:48.045Z,16.45
2023-05-14T12:10:17.671Z,19.33
2023-05-14T12:12:49.008Z,22.99
2023-05-14T12:15:17.364Z,23.43
2023-05-14T12:19:06.684Z,27.53
2023-05-14T12:22:50.171Z,27.99
2023-05-14T12:26:32.726Z,29.85
2023-05-14T12:30:21.900Z,30.06
2023-05-14T12:34:05.168Z,28.71
2023-05-14T12:37:48.054Z,27.54
2023-05-14T12:41:31.591Z,29.90
2023-05-14T12:44:00.530Z,31.33
2023-05-14T12:47:43.651Z,32.36
2023-05-14T12:51:26.363Z,32.39
2023-05-14T12:53:54.252Z,33.56
2023-05-14T12:57:36.593Z,31.29
2023-05-14T13:00:08.214Z,29.61
2023-05-14T13:02:43.185Z,27.54
2023-05-14T13:05:12.698Z,25.06
2023-05-14T13:08:56.775Z,24.77
2023-05-14T13:12:39.503Z,26.83
2023-05-14T13:15:07.955Z,30.02
2023-05-14T13:17:36.365Z,30.48
2023-05-14T13:20:04.819Z,30.72
2023-05-14T13:22:32.025Z,31.73
2023-05-14T13:24:59.230Z,32.50
2023-05-14T13:27:26.536Z,32.62
2023-05-14T13:29:54.015Z,32.84
2023-05-14T13:32:21.647Z,33.94
2023-05-14T13:34:49.138Z,33.33
2023-05-14T13:37:16.716Z,31.67
2023-05-14T13:39:45.060Z,29.79
2023-05-14T13:42:12.834Z,28.54
2023-05-14T13:44:40.385Z,28.43
2023-05-14T13:47:07.847Z,27.48
2023-05-14T13:49:35.521Z,25.88
2023-05-14T13:52:03.760Z,26.74
2023-05-14T13:54:31.346Z,27.90
2023-05-14T13:56:58.539Z,28.80
2023-05-14T13:59:25.827Z,29.54
2023-05-14T14:01:53.263Z,30.75
2023-05-14T14:04:21.079Z,29.45
2023-05-14T14:06:49.248Z,28.22
2023-05-14T14:09:17.106Z,28.51
2023-05-14T14:11:45.106Z,27.97
2023-05-14T14:14:13.246Z,27.52
2023-05-14T14:16:40.829Z,28.20
2023-05-14T14:19:10.821Z,28.39
2023-05-14T14:21:45.412Z,29.54
2023-05-14T14:24:14.787Z,29.55
2023-05-14T14:26:42.452Z,29.76
2023-05-14T14:29:10.655Z,30.92
2023-05-14T14:31:38.421Z,31.23
2023-05-14T14:34:06.188Z,32.02
2023-05-14T14:36:33.608Z,32.08
2023-05-14T14:39:05.896Z,33.72
2023-05-14T14:41:33.461Z,34.48
2023-05-14T14:44:02.745Z,33.88
2023-05-14T14:46:30.049Z,33.79
2023-05-14T14:48:58.002Z,33.96
2023-05-14T14:51:25.635Z,33.80
2023-05-14T14:53:52.953Z,36.35
2023-05-14T14:56:20.186Z,35.55
2023-05-14T14:58:47.658Z,36.58
2023-05-14T15:01:15.099Z,36.02
2023-05-14T15:03:43.339Z,35.99
2023-05-14T15:06:12.461Z,35.16
2023-05-14T15:08:40.406Z,33.85
2023-05-14T15:11:09.183Z,33.48
2023-05-14T15:13:36.843Z,34.11
2023-05-14T15:16:04.144Z,34.30
2023-05-14T15:18:31.370Z,34.80
2023-05-14T15:20:58.949Z,34.19
2023-05-14T15:23:26.551Z,34.35
2023-05-14T15:25:54.058Z,34.24
2023-05-14T15:28:21.981Z,34.85
2023-05-14T15:30:49.891Z,33.92
2023-05-14T15:33:19.266Z,35.35
2023-05-14T15:35:46.921Z,34.69
2023-05-14T15:38:14.152Z,34.14
2023-05-14T15:40:42.093Z,33.80
2023-05-14T15:43:09.713Z,33.08
2023-05-14T15:45:37.612Z,33.58
2023-05-14T15:48:05.119Z,34.25
2023-05-14T15:50:32.767Z,34.71
2023-05-14T15:53:00.964Z,34.60
2023-05-14T15:55:28.312Z,33.93
2023-05-14T15:57:56.058Z,33.75
2023-05-14T16:00:24.879Z,34.70
2023-05-14T16:02:53.045Z,34.18
2023-05-14T16:05:20.896Z,34.29
2023-05-14T16:07:48.824Z,33.87
2023-05-14T16:10:21.510Z,33.67
2023-05-14T16:12:49.128Z,34.42
2023-05-14T16:15:16.977Z,34.43
2023-05-14T16:17:44.730Z,34.47
2023-05-14T16:20:12.691Z,34.60
2023-05-14T16:22:40.555Z,35.92
2023-05-14T16:25:08.745Z,34.84
2023-05-14T16:27:36.639Z,34.88
2023-05-14T16:30:05.375Z,34.10
2023-05-14T16:32:33.729Z,33.87
2023-05-14T16:35:02.494Z,34.69
2023-05-14T16:37:31.587Z,35.16
2023-05-14T16:39:59.335Z,35.13
2023-05-14T16:42:26.691Z,35.71
2023-05-14T16:44:54.130Z,35.68
2023-05-14T16:47:21.460Z,34.96
2023-05-14T16:52:16.668Z,34.47
2023-05-14T16:54:43.904Z,34.92
2023-05-14T16:57:11.258Z,35.46
2023-05-14T16:59:38.518Z,35.62
2023-05-14T17:02:06.263Z,34.78
2023-05-14T17:04:38.678Z,34.27
2023-05-14T17:07:07.390Z,35.32
2023-05-14T17:09:35.587Z,36.42
2023-05-14T17:12:03.434Z,35.27
2023-05-14T17:14:31.588Z,35.20
2023-05-14T17:16:58.911Z,36.42
2023-05-14T17:19:26.095Z,36.91
2023-05-14T17:21:53.681Z,36.68
2023-05-14T17:24:21.558Z,35.59
2023-05-14T17:26:49.388Z,35.93
2023-05-14T17:29:17.766Z,35.07
2023-05-14T17:31:45.314Z,35.95
2023-05-14T17:34:12.770Z,36.26
2023-05-14T17:36:40.021Z,37.01
2023-05-14T17:39:07.642Z,37.70
2023-05-14T17:41:35.256Z,37.16
2023-05-14T17:44:02.511Z,37.12
2023-05-14T17:46:30.542Z,36.87
2023-05-14T17:48:58.521Z,37.61
2023-05-14T17:51:26.070Z,37.21
2023-05-14T17:53:53.536Z,37.08
2023-05-14T17:56:20.900Z,37.02
2023-05-14T17:58:49.910Z,37.09
2023-05-14T18:01:18.037Z,37.02
2023-05-14T18:03:46.126Z,37.45
2023-05-14T18:06:13.740Z,38.23
2023-05-14T18:08:42.697Z,38.11
2023-05-14T18:11:10.844Z,38.45
2023-05-14T18:13:38.399Z,38.65
2023-05-14T18:16:05.991Z,39.17
2023-05-14T18:18:33.441Z,39.54
2023-05-14T18:21:00.954Z,40.33
2023-05-14T18:23:28.885Z,41.39
2023-05-14T18:25:57.249Z,40.94
2023-05-14T18:28:25.342Z,42.91
2023-05-14T18:30:53.391Z,42.48
2023-05-14T18:33:21.238Z,43.03
2023-05-14T18:35:48.618Z,44.05
2023-05-14T18:38:17.865Z,44.73
2023-05-14T18:40:46.687Z,44.88
2023-05-14T18:43:15.066Z,45.06
2023-05-14T18:45:43.279Z,45.46
2023-05-14T18:48:10.777Z,45.88
2023-05-14T18:50:39.487Z,46.23
2023-05-14T18:53:07.614Z,46.26
2023-05-14T18:55:38.146Z,46.73
2023-05-14T18:58:05.646Z,47.03
2023-05-14T19:00:33.060Z,47.51
2023-05-14T19:03:00.826Z,47.64
2023-05-14T19:05:28.576Z,47.50
2023-05-14T19:08:02.095Z,48.92
2023-05-14T19:10:30.077Z,48.47
2023-05-14T19:12:57.694Z,48.91
2023-05-14T19:15:25.532Z,48.69
2023-05-14T19:17:54.166Z,48.01
2023-05-14T19:20:21.576Z,48.07
2023-05-14T19:22:49.343Z,48.67
2023-05-14T19:25:20.246Z,48.57
2023-05-14T19:27:51.082Z,49.17
2023-05-14T19:30:21.258Z,50.24
2023-05-14T19:32:48.587Z,50.65
2023-05-14T19:35:16.485Z,50.73
2023-05-14T19:37:44.096Z,52.13
2023-05-14T19:40:12.224Z,52.93
2023-05-14T19:42:39.777Z,52.37
2023-05-14T19:45:08.187Z,51.75
2023-05-14T19:47:35.461Z,51.84
2023-05-14T19:50:02.978Z,51.15
2023-05-14T19:52:31.934Z,51.79
2023-05-14T19:54:59.262Z,52.24
2023-05-14T19:57:26.760Z,51.50
2023-05-14T19:59:54.133Z,51.82
2023-05-14T20:02:22.265Z,52.20
2023-05-14T20:04:49.908Z,52.21
2023-05-14T20:07:17.867Z,52.88
2023-05-14T20:09:46.341Z,53.06
2023-05-14T20:12:14.538Z,53.33
2023-05-14T20:14:41.968Z,52.68
2023-05-14T20:17:09.829Z,54.62
2023-05-14T20:19:37.188Z,53.98
2023-05-14T20:22:04.695Z,54.93
2023-05-14T20:24:32.437Z,54.74
2023-05-14T20:27:00.253Z,54.74
2023-05-14T20:29:28.033Z,55.24
2023-05-14T20:31:55.780Z,55.11
2023-05-14T20:34:26.325Z,55.32
2023-05-14T20:36:53.565Z,56.01
2023-05-14T20:39:21.476Z,56.94
2023-05-14T20:41:48.999Z,58.36
2023-05-14T20:44:16.789Z,58.10
2023-05-14T20:46:45.211Z,57.55
2023-05-14T20:49:12.824Z,57.05
2023-05-14T20:51:40.580Z,57.11
2023-05-14T20:54:07.971Z,57.09
2023-05-14T20:56:38.162Z,57.59
2023-05-14T20:59:05.751Z,57.57
2023-05-14T21:01:33.150Z,57.08
2023-05-14T21:04:01.527Z,57.98
2023-05-14T21:06:29.658Z,58.23
2023-05-14T21:08:58.053Z,58.07
2023-05-14T21:11:26.197Z,57.35
2023-05-14T21:13:53.803Z,56.25
2023-05-14T21:16:21.168Z,55.69
2023-05-14T21:18:48.497Z,55.69
2023-05-14T21:21:15.785Z,55.44
2023-05-14T21:23:43.303Z,55.24
2023-05-14T21:26:11.484Z,56.38
2023-05-14T21:28:39.014Z,55.15
2023-05-14T21:31:06.351Z,54.86
2023-05-14T21:33:33.691Z,55.14
2023-05-14T21:36:01.776Z,54.35
2023-05-14T21:38:29.095Z,55.68
2023-05-14T21:40:56.379Z,55.39
2023-05-14T21:43:24.061Z,55.44
2023-05-14T21:45:51.386Z,55.59
2023-05-14T21:48:18.712Z,56.97
2023-05-14T21:50:46.036Z,56.73
2023-05-14T21:53:13.534Z,56.32
2023-05-14T21:55:41.676Z,56.36
2023-05-14T21:58:09.008Z,57.50
2023-05-14T22:00:36.179Z,57.06
2023-05-14T22:03:03.770Z,56.22
2023-05-14T22:05:31.582Z,56.98
2023-05-14T22:08:01.992Z,57.10
2023-05-14T22:10:31.390Z,56.73
2023-05-14T22:12:59.048Z,56.48
2023-05-14T22:15:26.664Z,55.89
2023-05-14T22:17:54.210Z,56.47
2023-05-14T22:20:22.428Z,56.19
2023-05-14T22:22:50.122Z,56.97
2023-05-14T22:25:21.392Z,57.51
2023-05-14T22:27:49.015Z,57.13
2023-05-14T22:30:16.722Z,56.93
2023-05-14T22:32:44.253Z,57.16
2023-05-14T22:35:11.677Z,57.43
2023-05-14T22:37:38.825Z,58.39
2023-05-14T22:40:09.217Z,58.97
2023-05-14T22:42:37.517Z,59.69
2023-05-14T22:45:05.397Z,59.52
2023-05-14T22:47:32.634Z,59.77
2023-05-14T22:50:00.188Z,60.68
2023-05-14T22:53:43.386Z,61.19
2023-05-14T22:57:26.093Z,62.14
2023-05-14T23:01:09.047Z,62.29
2023-05-14T23:04:51.853Z,62.53
2023-05-14T23:08:34.839Z,63.15
2023-05-14T23:11:02.994Z,63.78
2023-05-14T23:14:46.189Z,64.16
2023-05-14T23:17:14.090Z,63.63
2023-05-14T23:20:57.591Z,62.98
2023-05-14T23:24:40.710Z,62.59
2023-05-14T23:27:08.296Z,62.33
2023-05-14T23:30:51.006Z,63.67
2023-05-14T23:34:34.900Z,64.84
2023-05-14T23:37:02.749Z,66.01
2023-05-14T23:40:45.864Z,66.02
2023-05-14T23:44:28.655Z,63.70
2023-05-14T23:46:56.236Z,64.16
2023-05-14T23:50:03.709Z,66.13
2023-05-14T23:52:31.653Z,65.82
2023-05-14T23:54:59.148Z,65.12
2023-05-14T23:57:27.192Z,64.89
2023-05-14T23:59:54.500Z,64.37
